sensor_id;sensor_type;location;lat;lon;timestamp;pressure;altitude;pressure_sealevel;temperature;humidity
69247;BME280;56358;56.328;43.992;2022-12-18T00:01:36;100740.81;;;-4.28;83.15
69247;BME280;56358;56.328;43.992;2022-12-18T00:03:37;100735.53;;;-4.25;83.14
69247;BME280;56358;56.328;43.992;2022-12-18T00:05:48;100725.91;;;-4.23;83.03
69247;BME280;56358;56.328;43.992;2022-12-18T00:07:49;100718.91;;;-4.19;82.89
69247;BME280;56358;56.328;43.992;2022-12-18T00:09:50;100714.53;;;-4.18;82.85
69247;BME280;56358;56.328;43.992;2022-12-18T00:11:50;100623.59;;;-4.71;82.38
69247;BME280;56358;56.328;43.992;2022-12-18T00:13:52;100702.28;;;-4.16;82.53
69247;BME280;56358;56.328;43.992;2022-12-18T00:15:53;100691.81;;;-4.16;82.85
69247;BME280;56358;56.328;43.992;2022-12-18T00:17:54;100692.63;;;-4.13;82.60
69247;BME280;56358;56.328;43.992;2022-12-18T00:19:54;100651.06;;;-4.36;82.46
69247;BME280;56358;56.328;43.992;2022-12-18T00:21:55;100670.72;;;-4.09;82.48
69247;BME280;56358;56.328;43.992;2022-12-18T00:23:56;100603.19;;;-4.44;82.21
69247;BME280;56358;56.328;43.992;2022-12-18T00:26:00;100659.47;;;-4.12;82.16
69247;BME280;56358;56.328;43.992;2022-12-18T00:28:03;100661.97;;;-4.06;81.84
69247;BME280;56358;56.328;43.992;2022-12-18T00:30:04;100653.19;;;-4.02;81.79
69247;BME280;56358;56.328;43.992;2022-12-18T00:32:05;100647.13;;;-4.06;81.83
69247;BME280;56358;56.328;43.992;2022-12-18T00:34:06;100636.66;;;-4.06;82.09
69247;BME280;56358;56.328;43.992;2022-12-18T00:36:18;100611.53;;;-4.17;82.16
69247;BME280;56358;56.328;43.992;2022-12-18T00:38:19;100628.84;;;-4.09;82.01
69247;BME280;56358;56.328;43.992;2022-12-18T00:40:19;100609.69;;;-4.11;82.22
69247;BME280;56358;56.328;43.992;2022-12-18T00:42:20;100593.91;;;-4.08;82.14
69247;BME280;56358;56.328;43.992;2022-12-18T00:44:39;100559.34;;;-4.30;82.15
69247;BME280;56358;56.328;43.992;2022-12-18T00:46:40;100586.91;;;-4.06;82.05
69247;BME280;56358;56.328;43.992;2022-12-18T00:48:41;100580.00;;;-4.11;81.88
69247;BME280;56358;56.328;43.992;2022-12-18T00:50:42;100544.38;;;-4.20;81.73
69247;BME280;56358;56.328;43.992;2022-12-18T00:52:43;100513.25;;;-4.40;81.95
69247;BME280;56358;56.328;43.992;2022-12-18T00:54:43;100554.66;;;-4.09;81.79
69247;BME280;56358;56.328;43.992;2022-12-18T00:56:44;100474.16;;;-4.49;81.76
69247;BME280;56358;56.328;43.992;2022-12-18T00:58:45;100527.50;;;-4.04;81.55
69247;BME280;56358;56.328;43.992;2022-12-18T01:00:45;100515.28;;;-4.03;81.66
69247;BME280;56358;56.328;43.992;2022-12-18T01:02:46;100520.63;;;-4.09;81.63
69247;BME280;56358;56.328;43.992;2022-12-18T01:04:47;100507.50;;;-4.08;81.76
69247;BME280;56358;56.328;43.992;2022-12-18T01:06:48;100512.84;;;-4.14;81.82
69247;BME280;56358;56.328;43.992;2022-12-18T01:08:48;100490.06;;;-4.10;81.80
69247;BME280;56358;56.328;43.992;2022-12-18T01:10:49;100494.50;;;-4.12;81.69
69247;BME280;56358;56.328;43.992;2022-12-18T01:12:50;100412.34;;;-4.57;81.78
69247;BME280;56358;56.328;43.992;2022-12-18T01:14:51;100477.00;;;-4.12;82.18
69247;BME280;56358;56.328;43.992;2022-12-18T01:16:51;100403.53;;;-4.51;81.96
69247;BME280;56358;56.328;43.992;2022-12-18T01:18:53;100453.44;;;-4.12;82.00
69247;BME280;56358;56.328;43.992;2022-12-18T01:20:54;100457.00;;;-4.14;81.93
69247;BME280;56358;56.328;43.992;2022-12-18T01:22:55;100463.13;;;-4.17;82.23
69247;BME280;56358;56.328;43.992;2022-12-18T01:24:56;100441.41;;;-4.21;82.08
69247;BME280;56358;56.328;43.992;2022-12-18T01:26:56;100448.25;;;-4.13;81.91
69247;BME280;56358;56.328;43.992;2022-12-18T01:28:57;100434.44;;;-4.22;81.90
69247;BME280;56358;56.328;43.992;2022-12-18T01:31:27;100423.16;;;-4.25;82.15
69247;BME280;56358;56.328;43.992;2022-12-18T01:33:28;100438.59;;;-4.10;81.52
69247;BME280;56358;56.328;43.992;2022-12-18T01:35:29;100407.53;;;-4.31;81.78
69247;BME280;56358;56.328;43.992;2022-12-18T01:37:29;100462.94;;;-4.06;81.78
69247;BME280;56358;56.328;43.992;2022-12-18T01:39:30;100436.16;;;-4.21;81.71
69247;BME280;56358;56.328;43.992;2022-12-18T01:41:33;100376.44;;;-4.48;81.72
69247;BME280;56358;56.328;43.992;2022-12-18T01:43:55;100462.91;;;-4.05;81.64
69247;BME280;56358;56.328;43.992;2022-12-18T01:45:59;100442.94;;;-4.10;81.78
69247;BME280;56358;56.328;43.992;2022-12-18T01:48:06;100431.56;;;-4.08;81.71
69247;BME280;56358;56.328;43.992;2022-12-18T01:50:10;100446.28;;;-4.00;81.86
69247;BME280;56358;56.328;43.992;2022-12-18T01:52:11;100414.78;;;-3.97;81.45
69247;BME280;56358;56.328;43.992;2022-12-18T01:54:12;100410.41;;;-3.97;81.80
69247;BME280;56358;56.328;43.992;2022-12-18T01:56:17;100388.84;;;-4.10;81.77
69247;BME280;56358;56.328;43.992;2022-12-18T01:58:29;100359.13;;;-4.09;81.98
69247;BME280;56358;56.328;43.992;2022-12-18T02:00:32;100353.06;;;-4.11;82.34
69247;BME280;56358;56.328;43.992;2022-12-18T02:02:33;100368.81;;;-4.12;82.97
69247;BME280;56358;56.328;43.992;2022-12-18T02:04:34;100353.13;;;-4.14;83.24
69247;BME280;56358;56.328;43.992;2022-12-18T02:06:39;100257.09;;;-4.57;83.39
69247;BME280;56358;56.328;43.992;2022-12-18T02:08:56;100311.50;;;-4.28;83.91
69247;BME280;56358;56.328;43.992;2022-12-18T02:11:22;100318.28;;;-4.17;84.24
69247;BME280;56358;56.328;43.992;2022-12-18T02:13:36;100327.91;;;-4.19;84.19
69247;BME280;56358;56.328;43.992;2022-12-18T02:16:29;100310.47;;;-4.19;84.40
69247;BME280;56358;56.328;43.992;2022-12-18T02:18:41;100290.59;;;-4.29;84.36
69247;BME280;56358;56.328;43.992;2022-12-18T02:27:45;100184.59;;;-4.96;84.36
69247;BME280;56358;56.328;43.992;2022-12-18T02:29:55;100321.91;;;-4.23;84.34
69247;BME280;56358;56.328;43.992;2022-12-18T02:32:02;100331.31;;;-4.14;84.24
69247;BME280;56358;56.328;43.992;2022-12-18T02:34:06;100324.19;;;-4.08;84.24
69247;BME280;56358;56.328;43.992;2022-12-18T02:36:09;100309.31;;;-4.06;84.26
69247;BME280;56358;56.328;43.992;2022-12-18T02:38:11;100102.94;;;-5.09;83.85
69247;BME280;56358;56.328;43.992;2022-12-18T02:40:14;100260.44;;;-4.05;83.57
69247;BME280;56358;56.328;43.992;2022-12-18T02:42:16;100253.50;;;-4.08;83.62
69247;BME280;56358;56.328;43.992;2022-12-18T02:44:17;100241.38;;;-4.12;83.79
69247;BME280;56358;56.328;43.992;2022-12-18T02:48:30;100200.47;;;-4.17;84.05
69247;BME280;56358;56.328;43.992;2022-12-18T02:50:45;100169.91;;;-4.17;84.40
69247;BME280;56358;56.328;43.992;2022-12-18T02:53:01;100155.97;;;-4.17;84.68
69247;BME280;56358;56.328;43.992;2022-12-18T02:59:55;100117.78;;;-4.28;84.65
69247;BME280;56358;56.328;43.992;2022-12-18T03:04:10;100105.63;;;-4.30;85.00
69247;BME280;56358;56.328;43.992;2022-12-18T03:06:29;100096.06;;;-4.30;85.62
69247;BME280;56358;56.328;43.992;2022-12-18T03:08:35;100081.16;;;-4.28;85.52
69247;BME280;56358;56.328;43.992;2022-12-18T03:10:43;100090.81;;;-4.31;85.78
69247;BME280;56358;56.328;43.992;2022-12-18T03:12:54;100048.22;;;-4.36;86.01
69247;BME280;56358;56.328;43.992;2022-12-18T03:15:03;100054.25;;;-4.34;86.33
69247;BME280;56358;56.328;43.992;2022-12-18T03:17:07;100004.78;;;-4.45;86.53
69247;BME280;56358;56.328;43.992;2022-12-18T03:19:15;100007.44;;;-4.47;86.65
69247;BME280;56358;56.328;43.992;2022-12-18T03:21:20;100019.69;;;-4.47;86.51
69247;BME280;56358;56.328;43.992;2022-12-18T03:23:24;99967.97;;;-4.74;86.65
69247;BME280;56358;56.328;43.992;2022-12-18T03:25:28;100031.75;;;-4.42;86.75
69247;BME280;56358;56.328;43.992;2022-12-18T03:27:32;100021.28;;;-4.42;86.83
69247;BME280;56358;56.328;43.992;2022-12-18T03:31:42;100030.75;;;-4.36;86.50
69247;BME280;56358;56.328;43.992;2022-12-18T03:35:52;99977.59;;;-4.76;86.14
69247;BME280;56358;56.328;43.992;2022-12-18T03:37:53;100067.13;;;-4.25;86.30
69247;BME280;56358;56.328;43.992;2022-12-18T03:39:54;100055.72;;;-4.23;85.97
69247;BME280;56358;56.328;43.992;2022-12-18T03:42:28;100039.97;;;-4.21;85.37
69247;BME280;56358;56.328;43.992;2022-12-18T03:44:39;100040.03;;;-4.23;84.94
69247;BME280;56358;56.328;43.992;2022-12-18T03:46:54;100046.06;;;-4.19;84.68
69247;BME280;56358;56.328;43.992;2022-12-18T03:49:30;100036.31;;;-4.12;84.84
69247;BME280;56358;56.328;43.992;2022-12-18T03:51:42;100024.09;;;-4.13;84.38
69247;BME280;56358;56.328;43.992;2022-12-18T03:53:58;100017.94;;;-4.11;84.36
69247;BME280;56358;56.328;43.992;2022-12-18T03:56:00;100003.06;;;-4.10;84.51
69247;BME280;56358;56.328;43.992;2022-12-18T03:58:04;100003.06;;;-4.10;84.54
69247;BME280;56358;56.328;43.992;2022-12-18T04:00:12;99999.66;;;-4.12;84.46
69247;BME280;56358;56.328;43.992;2022-12-18T04:02:15;99998.72;;;-4.10;84.73
69247;BME280;56358;56.328;43.992;2022-12-18T04:04:16;100002.09;;;-4.06;84.31
69247;BME280;56358;56.328;43.992;2022-12-18T04:06:18;99986.38;;;-4.06;84.51
69247;BME280;56358;56.328;43.992;2022-12-18T04:08:20;99996.09;;;-4.10;84.36
69247;BME280;56358;56.328;43.992;2022-12-18T04:10:22;99982.75;;;-4.00;84.45
69247;BME280;56358;56.328;43.992;2022-12-18T04:12:27;99939.81;;;-4.28;84.39
69247;BME280;56358;56.328;43.992;2022-12-18T04:14:28;100005.34;;;-3.96;84.26
69247;BME280;56358;56.328;43.992;2022-12-18T04:16:29;99986.16;;;-3.97;84.46
69247;BME280;56358;56.328;43.992;2022-12-18T04:18:30;99994.00;;;-3.97;84.39
69247;BME280;56358;56.328;43.992;2022-12-18T04:20:31;99835.47;;;-4.75;84.23
69247;BME280;56358;56.328;43.992;2022-12-18T04:22:31;99971.22;;;-3.93;84.43
69247;BME280;56358;56.328;43.992;2022-12-18T04:24:32;99894.72;;;-4.38;84.32
69247;BME280;56358;56.328;43.992;2022-12-18T04:26:33;99965.13;;;-3.94;84.48
69247;BME280;56358;56.328;43.992;2022-12-18T04:28:33;99967.75;;;-3.94;84.92
69247;BME280;56358;56.328;43.992;2022-12-18T04:30:34;99959.91;;;-3.95;84.65
69247;BME280;56358;56.328;43.992;2022-12-18T04:32:35;99963.47;;;-3.98;85.21
69247;BME280;56358;56.328;43.992;2022-12-18T04:34:35;99961.63;;;-3.94;85.24
69247;BME280;56358;56.328;43.992;2022-12-18T04:36:36;99942.69;;;-4.04;85.21
69247;BME280;56358;56.328;43.992;2022-12-18T04:38:37;99896.91;;;-4.22;84.97
69247;BME280;56358;56.328;43.992;2022-12-18T04:40:37;99938.03;;;-3.93;85.09
69247;BME280;56358;56.328;43.992;2022-12-18T04:42:39;99925.91;;;-3.97;85.31
69247;BME280;56358;56.328;43.992;2022-12-18T04:44:40;99937.97;;;-3.90;85.24
69247;BME280;56358;56.328;43.992;2022-12-18T04:46:41;99931.84;;;-3.90;85.32
69247;BME280;56358;56.328;43.992;2022-12-18T04:48:41;99930.22;;;-3.94;85.16
69247;BME280;56358;56.328;43.992;2022-12-18T04:50:42;99928.41;;;-3.92;85.64
69247;BME280;56358;56.328;43.992;2022-12-18T04:52:43;99924.81;;;-3.88;85.38
69247;BME280;56358;56.328;43.992;2022-12-18T04:54:43;99923.19;;;-3.92;85.45
69247;BME280;56358;56.328;43.992;2022-12-18T04:56:44;99923.88;;;-3.85;85.27
69247;BME280;56358;56.328;43.992;2022-12-18T04:58:45;99932.56;;;-3.85;85.34
69247;BME280;56358;56.328;43.992;2022-12-18T05:00:45;99861.00;;;-4.17;85.37
69247;BME280;56358;56.328;43.992;2022-12-18T05:02:46;99914.13;;;-3.80;85.60
69247;BME280;56358;56.328;43.992;2022-12-18T05:04:47;99829.72;;;-4.22;85.00
69247;BME280;56358;56.328;43.992;2022-12-18T05:06:47;99911.53;;;-3.82;85.15
69247;BME280;56358;56.328;43.992;2022-12-18T05:08:48;99904.25;;;-3.71;85.08
69247;BME280;56358;56.328;43.992;2022-12-18T05:10:48;99858.50;;;-3.90;84.94
69247;BME280;56358;56.328;43.992;2022-12-18T05:12:49;99891.06;;;-3.67;84.89
69247;BME280;56358;56.328;43.992;2022-12-18T05:14:59;99747.63;;;-4.82;84.44
69247;BME280;56358;56.328;43.992;2022-12-18T05:16:59;99886.75;;;-3.70;84.57
69247;BME280;56358;56.328;43.992;2022-12-18T05:19:00;99755.47;;;-4.50;84.36
69247;BME280;56358;56.328;43.992;2022-12-18T05:21:01;99883.38;;;-3.74;84.49
69247;BME280;56358;56.328;43.992;2022-12-18T05:23:02;99823.28;;;-4.10;84.62
69247;BME280;56358;56.328;43.992;2022-12-18T05:25:03;99749.50;;;-4.54;84.40
69247;BME280;56358;56.328;43.992;2022-12-18T05:27:04;99893.03;;;-3.76;84.62
69247;BME280;56358;56.328;43.992;2022-12-18T05:29:04;99877.53;;;-3.83;84.52
69247;BME280;56358;56.328;43.992;2022-12-18T05:31:05;99873.88;;;-3.78;84.68
69247;BME280;56358;56.328;43.992;2022-12-18T05:33:06;99863.59;;;-3.84;84.58
69247;BME280;56358;56.328;43.992;2022-12-18T05:35:08;99863.44;;;-3.79;84.62
69247;BME280;56358;56.328;43.992;2022-12-18T05:37:09;99782.66;;;-4.23;84.53
69247;BME280;56358;56.328;43.992;2022-12-18T05:39:09;99852.97;;;-3.79;84.77
69247;BME280;56358;56.328;43.992;2022-12-18T05:41:10;99852.91;;;-3.76;84.74
69247;BME280;56358;56.328;43.992;2022-12-18T05:43:11;99837.97;;;-3.74;84.82
69247;BME280;56358;56.328;43.992;2022-12-18T05:45:11;99856.31;;;-3.74;84.68
69247;BME280;56358;56.328;43.992;2022-12-18T05:47:12;99671.69;;;-4.79;84.69
69247;BME280;56358;56.328;43.992;2022-12-18T05:49:13;99713.81;;;-4.57;84.47
69247;BME280;56358;56.328;43.992;2022-12-18T05:51:15;99824.34;;;-3.85;84.48
69247;BME280;56358;56.328;43.992;2022-12-18T05:53:18;99842.63;;;-3.84;84.38
69247;BME280;56358;56.328;43.992;2022-12-18T05:55:19;99859.81;;;-3.74;84.17
69247;BME280;56358;56.328;43.992;2022-12-18T05:57:22;99839.78;;;-3.76;84.47
69247;BME280;56358;56.328;43.992;2022-12-18T05:59:23;99844.16;;;-3.77;84.40
69247;BME280;56358;56.328;43.992;2022-12-18T06:01:26;99823.25;;;-3.78;84.33
69247;BME280;56358;56.328;43.992;2022-12-18T06:03:26;99837.81;;;-3.68;84.48
69247;BME280;56358;56.328;43.992;2022-12-18T06:05:27;99840.38;;;-3.66;84.05
69247;BME280;56358;56.328;43.992;2022-12-18T06:07:28;99848.13;;;-3.63;83.91
69247;BME280;56358;56.328;43.992;2022-12-18T06:09:29;99836.81;;;-3.64;83.62
69247;BME280;56358;56.328;43.992;2022-12-18T06:11:29;99841.91;;;-3.59;83.68
69247;BME280;56358;56.328;43.992;2022-12-18T06:13:30;99826.28;;;-3.62;83.53
69247;BME280;56358;56.328;43.992;2022-12-18T06:15:31;99821.94;;;-3.63;83.41
69247;BME280;56358;56.328;43.992;2022-12-18T06:17:32;99824.28;;;-3.54;83.29
69247;BME280;56358;56.328;43.992;2022-12-18T06:19:33;99795.16;;;-3.73;83.28
69247;BME280;56358;56.328;43.992;2022-12-18T06:21:33;99815.78;;;-3.62;83.23
69247;BME280;56358;56.328;43.992;2022-12-18T06:23:34;99815.91;;;-3.65;83.11
69247;BME280;56358;56.328;43.992;2022-12-18T06:25:38;99820.88;;;-3.58;83.15
69247;BME280;56358;56.328;43.992;2022-12-18T06:27:39;99810.56;;;-3.62;83.16
69247;BME280;56358;56.328;43.992;2022-12-18T06:29:40;99840.06;;;-3.56;83.08
69247;BME280;56358;56.328;43.992;2022-12-18T06:31:41;99829.63;;;-3.57;83.00
69247;BME280;56358;56.328;43.992;2022-12-18T06:33:41;99824.44;;;-3.59;83.10
69247;BME280;56358;56.328;43.992;2022-12-18T06:35:42;99819.94;;;-3.55;83.09
69247;BME280;56358;56.328;43.992;2022-12-18T06:37:43;99736.56;;;-3.99;83.01
69247;BME280;56358;56.328;43.992;2022-12-18T06:39:43;99801.56;;;-3.54;83.12
69247;BME280;56358;56.328;43.992;2022-12-18T06:41:44;99804.97;;;-3.51;83.19
69247;BME280;56358;56.328;43.992;2022-12-18T06:43:45;99803.19;;;-3.49;82.90
69247;BME280;56358;56.328;43.992;2022-12-18T06:45:45;99796.34;;;-3.54;82.82
69247;BME280;56358;56.328;43.992;2022-12-18T06:47:50;99785.84;;;-3.54;82.84
69247;BME280;56358;56.328;43.992;2022-12-18T06:49:50;99794.50;;;-3.51;82.26
69247;BME280;56358;56.328;43.992;2022-12-18T06:51:51;99787.50;;;-3.51;82.38
69247;BME280;56358;56.328;43.992;2022-12-18T06:53:52;99775.25;;;-3.50;82.11
69247;BME280;56358;56.328;43.992;2022-12-18T06:56:00;99771.75;;;-3.49;82.06
69247;BME280;56358;56.328;43.992;2022-12-18T06:58:01;99701.47;;;-3.93;82.11
69247;BME280;56358;56.328;43.992;2022-12-18T07:00:04;99692.63;;;-3.89;82.10
69247;BME280;56358;56.328;43.992;2022-12-18T07:02:06;99760.09;;;-3.41;82.07
69247;BME280;56358;56.328;43.992;2022-12-18T07:04:06;99751.47;;;-3.44;81.93
69247;BME280;56358;56.328;43.992;2022-12-18T07:06:13;99760.31;;;-3.47;82.05
69247;BME280;56358;56.328;43.992;2022-12-18T07:08:15;99747.88;;;-3.42;81.98
69247;BME280;56358;56.328;43.992;2022-12-18T07:10:15;99747.88;;;-3.42;82.04
69247;BME280;56358;56.328;43.992;2022-12-18T07:12:16;99735.28;;;-3.57;82.00
69247;BME280;56358;56.328;43.992;2022-12-18T07:14:17;99756.88;;;-3.49;81.91
69247;BME280;56358;56.328;43.992;2022-12-18T07:16:19;99746.56;;;-3.55;82.04
69247;BME280;56358;56.328;43.992;2022-12-18T07:18:20;99743.03;;;-3.54;81.88
69247;BME280;56358;56.328;43.992;2022-12-18T07:20:21;99740.38;;;-3.53;81.97
69247;BME280;56358;56.328;43.992;2022-12-18T07:22:22;99745.53;;;-3.49;81.97
69247;BME280;56358;56.328;43.992;2022-12-18T07:24:22;99746.38;;;-3.49;81.63
69247;BME280;56358;56.328;43.992;2022-12-18T07:26:23;99715.34;;;-3.61;81.65
69247;BME280;56358;56.328;43.992;2022-12-18T07:28:23;99732.63;;;-3.56;81.59
69247;BME280;56358;56.328;43.992;2022-12-18T07:30:24;99740.28;;;-3.49;81.68
69247;BME280;56358;56.328;43.992;2022-12-18T07:32:25;99725.38;;;-3.47;81.58
69247;BME280;56358;56.328;43.992;2022-12-18T07:34:25;99710.00;;;-3.58;81.38
69247;BME280;56358;56.328;43.992;2022-12-18T07:36:26;99714.94;;;-3.49;81.06
69247;BME280;56358;56.328;43.992;2022-12-18T07:38:27;99713.31;;;-3.53;81.18
69247;BME280;56358;56.328;43.992;2022-12-18T07:40:27;99729.75;;;-3.48;81.36
69247;BME280;56358;56.328;43.992;2022-12-18T07:42:28;99728.84;;;-3.47;81.55
69247;BME280;56358;56.328;43.992;2022-12-18T07:44:31;99727.19;;;-3.49;81.40
69247;BME280;56358;56.328;43.992;2022-12-18T07:46:32;99661.00;;;-3.83;81.53
69247;BME280;56358;56.328;43.992;2022-12-18T07:48:33;99721.94;;;-3.49;81.76
69247;BME280;56358;56.328;43.992;2022-12-18T07:50:34;99723.19;;;-3.61;81.78
69247;BME280;56358;56.328;43.992;2022-12-18T07:52:34;99641.16;;;-3.90;81.91
69247;BME280;56358;56.328;43.992;2022-12-18T07:54:35;99706.22;;;-3.49;82.15
69247;BME280;56358;56.328;43.992;2022-12-18T07:56:36;99707.91;;;-3.47;82.26
69247;BME280;56358;56.328;43.992;2022-12-18T07:58:36;99689.88;;;-3.58;82.20
69247;BME280;56358;56.328;43.992;2022-12-18T08:00:37;99699.91;;;-3.44;82.44
69247;BME280;56358;56.328;43.992;2022-12-18T08:02:38;99695.63;;;-3.46;82.53
69247;BME280;56358;56.328;43.992;2022-12-18T08:04:38;99698.91;;;-3.40;82.45
69247;BME280;56358;56.328;43.992;2022-12-18T08:06:39;99681.63;;;-3.45;82.54
69247;BME280;56358;56.328;43.992;2022-12-18T08:08:40;99693.50;;;-3.35;82.37
69247;BME280;56358;56.328;43.992;2022-12-18T08:10:42;99689.97;;;-3.34;82.35
69247;BME280;56358;56.328;43.992;2022-12-18T08:12:43;99623.41;;;-3.82;81.75
69247;BME280;56358;56.328;43.992;2022-12-18T08:14:43;99697.84;;;-3.34;81.88
69247;BME280;56358;56.328;43.992;2022-12-18T08:16:44;99679.38;;;-3.31;81.66
69247;BME280;56358;56.328;43.992;2022-12-18T08:18:45;99687.94;;;-3.26;81.50
69247;BME280;56358;56.328;43.992;2022-12-18T08:20:45;99682.94;;;-3.32;81.36
69247;BME280;56358;56.328;43.992;2022-12-18T08:22:46;99699.38;;;-3.27;81.39
69247;BME280;56358;56.328;43.992;2022-12-18T08:24:47;99677.13;;;-3.42;81.28
69247;BME280;56358;56.328;43.992;2022-12-18T08:26:47;99690.69;;;-3.29;81.47
69247;BME280;56358;56.328;43.992;2022-12-18T08:28:49;99702.06;;;-3.30;81.51
69247;BME280;56358;56.328;43.992;2022-12-18T08:30:53;99695.09;;;-3.29;81.65
69247;BME280;56358;56.328;43.992;2022-12-18T08:32:53;99711.66;;;-3.29;81.82
69247;BME280;56358;56.328;43.992;2022-12-18T08:34:54;99689.06;;;-3.33;81.92
69247;BME280;56358;56.328;43.992;2022-12-18T08:36:54;99698.81;;;-3.37;81.90
69247;BME280;56358;56.328;43.992;2022-12-18T08:38:56;99711.97;;;-3.38;82.13
69247;BME280;56358;56.328;43.992;2022-12-18T08:41:00;99704.09;;;-3.38;82.22
69247;BME280;56358;56.328;43.992;2022-12-18T08:43:01;99695.69;;;-3.48;82.38
69247;BME280;56358;56.328;43.992;2022-12-18T08:45:21;99715.41;;;-3.36;82.30
69247;BME280;56358;56.328;43.992;2022-12-18T08:47:21;99717.00;;;-3.32;82.24
69247;BME280;56358;56.328;43.992;2022-12-18T08:49:22;99714.38;;;-3.32;81.50
69247;BME280;56358;56.328;43.992;2022-12-18T08:51:22;99723.22;;;-3.34;81.85
69247;BME280;56358;56.328;43.992;2022-12-18T08:53:23;99716.19;;;-3.34;81.63
69247;BME280;56358;56.328;43.992;2022-12-18T08:55:24;99655.25;;;-3.67;81.43
69247;BME280;56358;56.328;43.992;2022-12-18T08:57:25;99731.03;;;-3.33;81.42
69247;BME280;56358;56.328;43.992;2022-12-18T08:59:25;99692.16;;;-3.47;81.49
69247;BME280;56358;56.328;43.992;2022-12-18T09:01:26;99663.22;;;-3.71;81.36
69247;BME280;56358;56.328;43.992;2022-12-18T09:03:27;99712.66;;;-3.33;81.64
69247;BME280;56358;56.328;43.992;2022-12-18T09:05:28;99708.31;;;-3.34;81.44
69247;BME280;56358;56.328;43.992;2022-12-18T09:07:28;99701.06;;;-3.53;81.24
69247;BME280;56358;56.328;43.992;2022-12-18T09:09:29;99706.06;;;-3.45;81.46
69247;BME280;56358;56.328;43.992;2022-12-18T09:11:31;99636.56;;;-3.83;81.39
69247;BME280;56358;56.328;43.992;2022-12-18T09:13:32;99718.91;;;-3.37;81.50
69247;BME280;56358;56.328;43.992;2022-12-18T09:15:32;99715.44;;;-3.38;81.21
69247;BME280;56358;56.328;43.992;2022-12-18T09:17:33;99715.44;;;-3.38;80.98
69247;BME280;56358;56.328;43.992;2022-12-18T09:19:34;99716.13;;;-3.32;80.91
69247;BME280;56358;56.328;43.992;2022-12-18T09:21:37;99702.44;;;-3.41;80.50
69247;BME280;56358;56.328;43.992;2022-12-18T09:23:39;99714.38;;;-3.32;80.28
69247;BME280;56358;56.328;43.992;2022-12-18T09:25:40;99709.28;;;-3.37;79.97
69247;BME280;56358;56.328;43.992;2022-12-18T09:27:41;99712.72;;;-3.34;80.24
69247;BME280;56358;56.328;43.992;2022-12-18T09:29:41;99709.34;;;-3.38;79.77
69247;BME280;56358;56.328;43.992;2022-12-18T09:31:42;99710.91;;;-3.32;80.42
69247;BME280;56358;56.328;43.992;2022-12-18T09:33:43;99720.66;;;-3.36;80.00
69247;BME280;56358;56.328;43.992;2022-12-18T09:35:45;99713.69;;;-3.37;79.93
69247;BME280;56358;56.328;43.992;2022-12-18T09:37:46;99707.78;;;-3.44;80.09
69247;BME280;56358;56.328;43.992;2022-12-18T09:39:47;99716.41;;;-3.40;80.23
69247;BME280;56358;56.328;43.992;2022-12-18T09:41:52;99712.66;;;-3.33;80.21
69247;BME280;56358;56.328;43.992;2022-12-18T09:49:09;99712.44;;;-3.25;79.58
69247;BME280;56358;56.328;43.992;2022-12-18T09:51:20;99644.72;;;-3.66;79.54
69247;BME280;56358;56.328;43.992;2022-12-18T09:53:26;99706.06;;;-3.18;79.70
69247;BME280;56358;56.328;43.992;2022-12-18T09:55:42;99722.16;;;-3.29;79.51
69247;BME280;56358;56.328;43.992;2022-12-18T09:57:48;99711.25;;;-3.16;79.11
69247;BME280;56358;56.328;43.992;2022-12-18T09:59:54;99713.72;;;-3.12;79.12
69247;BME280;56358;56.328;43.992;2022-12-18T10:01:56;99717.06;;;-3.08;79.08
69247;BME280;56358;56.328;43.992;2022-12-18T10:03:56;99716.44;;;-3.15;79.18
69247;BME280;56358;56.328;43.992;2022-12-18T10:10:53;99721.97;;;-3.24;78.92
69247;BME280;56358;56.328;43.992;2022-12-18T10:13:12;99706.59;;;-3.33;79.24
69247;BME280;56358;56.328;43.992;2022-12-18T10:15:27;99711.50;;;-3.24;78.87
69247;BME280;56358;56.328;43.992;2022-12-18T10:17:41;99723.94;;;-3.31;78.82
69247;BME280;56358;56.328;43.992;2022-12-18T10:22:07;99728.22;;;-3.27;78.80
69247;BME280;56358;56.328;43.992;2022-12-18T10:24:33;99735.13;;;-3.26;78.62
69247;BME280;56358;56.328;43.992;2022-12-18T10:26:38;99731.06;;;-3.34;78.94
69247;BME280;56358;56.328;43.992;2022-12-18T10:28:40;99740.59;;;-3.32;78.59
69247;BME280;56358;56.328;43.992;2022-12-18T10:30:42;99754.06;;;-3.43;78.89
69247;BME280;56358;56.328;43.992;2022-12-18T10:32:43;99724.03;;;-3.61;78.74
69247;BME280;56358;56.328;43.992;2022-12-18T10:34:48;99755.25;;;-3.53;79.02
69247;BME280;56358;56.328;43.992;2022-12-18T10:36:49;99763.25;;;-3.58;79.15
69247;BME280;56358;56.328;43.992;2022-12-18T10:38:49;99762.38;;;-3.58;79.48
69247;BME280;56358;56.328;43.992;2022-12-18T10:41:23;99768.47;;;-3.58;79.45
69247;BME280;56358;56.328;43.992;2022-12-18T10:43:33;99768.53;;;-3.59;79.32
69247;BME280;56358;56.328;43.992;2022-12-18T10:45:34;99765.13;;;-3.61;79.55
69247;BME280;56358;56.328;43.992;2022-12-18T10:47:35;99765.97;;;-3.61;79.52
69247;BME280;56358;56.328;43.992;2022-12-18T10:49:36;99774.03;;;-3.67;78.66
69247;BME280;56358;56.328;43.992;2022-12-18T10:51:40;99776.09;;;-3.78;78.75
69247;BME280;56358;56.328;43.992;2022-12-18T10:53:42;99780.41;;;-3.76;79.26
69247;BME280;56358;56.328;43.992;2022-12-18T10:55:45;99787.41;;;-3.76;78.66
69247;BME280;56358;56.328;43.992;2022-12-18T10:57:46;99812.00;;;-3.82;78.84
69247;BME280;56358;56.328;43.992;2022-12-18T10:59:53;99776.56;;;-3.94;78.70
69247;BME280;56358;56.328;43.992;2022-12-18T11:01:57;99799.38;;;-3.97;78.29
69247;BME280;56358;56.328;43.992;2022-12-18T11:04:01;99789.53;;;-3.89;78.64
69247;BME280;56358;56.328;43.992;2022-12-18T11:08:20;99781.00;;;-3.96;78.40
69247;BME280;56358;56.328;43.992;2022-12-18T11:10:35;99780.09;;;-3.95;78.46
69247;BME280;56358;56.328;43.992;2022-12-18T11:12:37;99795.88;;;-3.98;78.62
69247;BME280;56358;56.328;43.992;2022-12-18T11:14:50;99778.47;;;-3.99;78.62
69247;BME280;56358;56.328;43.992;2022-12-18T11:16:52;99707.66;;;-4.56;78.88
69247;BME280;56358;56.328;43.992;2022-12-18T11:18:55;99791.19;;;-4.16;78.50